createdAt,value
2022-08-03T00:02:24.606Z,22.54
2022-08-03T00:05:26.037Z,22.52
2022-08-03T00:08:27.488Z,22.56
2022-08-03T00:11:28.914Z,22.43
2022-08-03T00:14:30.457Z,22.37
2022-08-03T00:17:52.295Z,22.36
2022-08-03T00:20:53.376Z,22.13
2022-08-03T00:23:55.943Z,22.17
2022-08-03T00:26:57.388Z,22.07
2022-08-03T00:29:59.770Z,22.20
2022-08-03T00:33:02.049Z,22.24
2022-08-03T00:36:04.422Z,22.13
2022-08-03T00:39:05.877Z,21.95
2022-08-03T00:42:07.437Z,22.18
2022-08-03T00:45:09.201Z,22.14
2022-08-03T00:48:19.454Z,21.84
2022-08-03T00:51:33.941Z,21.89
2022-08-03T00:54:37.868Z,21.91
2022-08-03T00:57:39.609Z,21.83
2022-08-03T01:00:41.231Z,21.77
2022-08-03T01:03:42.820Z,21.92
2022-08-03T01:06:55.676Z,21.77
2022-08-03T01:10:10.151Z,21.69
2022-08-03T01:14:01.715Z,21.81
2022-08-03T01:17:24.229Z,21.80
2022-08-03T01:20:31.910Z,21.64
2022-08-03T01:24:10.799Z,21.64
2022-08-03T01:27:18.862Z,21.59
2022-08-03T01:30:20.943Z,21.64
2022-08-03T01:33:26.137Z,21.61
2022-08-03T01:36:35.449Z,21.44
2022-08-03T01:39:39.837Z,21.34
2022-08-03T01:42:43.294Z,21.51
2022-08-03T01:45:45.310Z,21.51
2022-08-03T01:48:49.118Z,21.42
2022-08-03T01:52:03.702Z,21.05
2022-08-03T01:55:08.888Z,21.03
2022-08-03T01:58:13.553Z,21.30
2022-08-03T02:01:17.073Z,21.33
2022-08-03T02:04:19.483Z,21.29
2022-08-03T02:07:21.293Z,21.13
2022-08-03T02:10:35.501Z,21.21
2022-08-03T02:13:38.424Z,21.10
2022-08-03T02:16:39.985Z,20.91
2022-08-03T02:19:43.154Z,21.06
2022-08-03T02:22:46.524Z,20.93
2022-08-03T02:25:59.897Z,20.95
2022-08-03T02:29:08.820Z,21.05
2022-08-03T02:32:20.132Z,20.92
2022-08-03T02:35:23.404Z,21.04
2022-08-03T02:38:31.083Z,20.96
2022-08-03T02:41:41.762Z,20.90
2022-08-03T02:44:48.448Z,20.88
2022-08-03T02:47:55.234Z,20.81
2022-08-03T02:50:59.796Z,21.03
2022-08-03T02:54:04.147Z,20.87
2022-08-03T02:57:07.622Z,20.84
2022-08-03T03:00:10.062Z,20.91
2022-08-03T03:03:12.934Z,20.81
2022-08-03T03:06:17.475Z,20.96
2022-08-03T03:09:21.512Z,20.72
2022-08-03T03:12:24.582Z,20.77
2022-08-03T03:15:27.836Z,20.79
2022-08-03T03:18:30.959Z,20.87
2022-08-03T03:21:33.835Z,20.94
2022-08-03T03:24:36.317Z,20.85
2022-08-03T03:27:37.904Z,20.77
2022-08-03T03:30:40.085Z,20.60
2022-08-03T03:33:41.876Z,20.52
2022-08-03T03:36:43.333Z,20.68
2022-08-03T03:39:44.911Z,20.62
2022-08-03T03:42:46.637Z,20.72
2022-08-03T03:45:49.122Z,20.74
2022-08-03T03:48:50.802Z,20.52
2022-08-03T03:51:54.185Z,20.35
2022-08-03T03:55:00.666Z,20.31
2022-08-03T03:58:04.059Z,20.24
2022-08-03T04:01:05.666Z,20.13
2022-08-03T04:04:25.592Z,20.49
2022-08-03T04:07:46.763Z,20.58
2022-08-03T04:11:06.107Z,20.48
2022-08-03T04:14:15.151Z,20.21
2022-08-03T04:17:18.328Z,20.24
2022-08-03T04:20:21.406Z,19.97
2022-08-03T04:23:27.679Z,19.90
2022-08-03T04:26:33.806Z,20.03
2022-08-03T04:29:38.519Z,20.22
2022-08-03T04:32:51.704Z,20.13
2022-08-03T04:36:02.695Z,20.29
2022-08-03T04:39:16.874Z,20.19
2022-08-03T04:42:21.670Z,20.12
2022-08-03T04:45:25.158Z,20.04
2022-08-03T04:48:27.183Z,19.93
2022-08-03T04:51:29.929Z,20.06
2022-08-03T04:54:39.452Z,20.06
2022-08-03T04:57:40.893Z,20.15
2022-08-03T05:00:42.968Z,20.26
2022-08-03T05:03:44.396Z,20.32
2022-08-03T05:06:48.032Z,20.32
2022-08-03T05:09:52.820Z,20.13
2022-08-03T05:12:59.205Z,20.08
2022-08-03T05:16:00.642Z,20.12
2022-08-03T05:19:02.200Z,20.08
2022-08-03T05:22:03.633Z,20.06
2022-08-03T05:25:05.480Z,20.28
2022-08-03T05:28:06.970Z,20.34
2022-08-03T05:31:08.479Z,20.35
2022-08-03T05:34:10.074Z,20.30
2022-08-03T05:37:11.707Z,20.32
2022-08-03T05:40:13.355Z,20.52
2022-08-03T05:43:14.846Z,20.47
2022-08-03T05:46:16.368Z,20.49
2022-08-03T05:49:18.430Z,20.47
2022-08-03T05:52:19.914Z,20.60
2022-08-03T05:55:21.622Z,20.61
2022-08-03T05:58:23.056Z,20.63
2022-08-03T06:01:33.081Z,20.69
2022-08-03T06:04:34.693Z,20.69
2022-08-03T06:07:36.643Z,20.80
2022-08-03T06:10:38.560Z,20.97
2022-08-03T06:13:41.082Z,21.18
2022-08-03T06:16:42.571Z,21.30
2022-08-03T06:19:44.021Z,21.26
2022-08-03T06:22:51.317Z,21.28
2022-08-03T06:26:02.453Z,21.46
2022-08-03T06:29:04.084Z,21.45
2022-08-03T06:32:05.990Z,21.58
2022-08-03T06:35:08.960Z,21.55
2022-08-03T06:38:10.515Z,21.70
2022-08-03T06:41:12.058Z,21.68
2022-08-03T06:44:13.838Z,21.95
2022-08-03T06:47:15.409Z,22.07
2022-08-03T06:50:21.743Z,22.35
2022-08-03T06:53:25.833Z,22.21
2022-08-03T06:56:27.282Z,22.35
2022-08-03T07:00:06.469Z,22.56
2022-08-03T07:02:53.663Z,22.62
2022-08-03T07:05:59.512Z,22.76
2022-08-03T07:09:01.139Z,22.89
2022-08-03T07:12:04.329Z,23.17
2022-08-03T07:15:06.427Z,23.36
2022-08-03T07:18:07.931Z,23.55
2022-08-03T07:21:10.934Z,23.73
2022-08-03T07:24:12.482Z,24.30
2022-08-03T07:27:16.265Z,24.40
2022-08-03T07:30:18.478Z,24.54
2022-08-03T07:33:20.018Z,24.82
2022-08-03T07:36:21.615Z,25.10
2022-08-03T07:39:23.387Z,25.20
2022-08-03T07:42:25.063Z,25.48
2022-08-03T07:45:26.762Z,25.51
2022-08-03T07:48:28.555Z,25.82
2022-08-03T07:51:30.103Z,25.90
2022-08-03T07:54:32.044Z,26.29
2022-08-03T07:57:34.378Z,26.40
2022-08-03T08:00:36.888Z,26.57
2022-08-03T08:03:49.827Z,26.78
2022-08-03T08:06:54.557Z,26.68
2022-08-03T08:09:56.015Z,26.91
2022-08-03T08:12:57.433Z,27.10
2022-08-03T08:15:58.924Z,27.20
2022-08-03T08:19:02.001Z,27.24
2022-08-03T08:22:03.465Z,27.42
2022-08-03T08:25:07.225Z,27.49
2022-08-03T08:28:30.485Z,27.68
2022-08-03T08:31:30.197Z,27.77
2022-08-03T08:34:31.670Z,27.83
2022-08-03T08:37:34.253Z,27.99
2022-08-03T08:40:35.740Z,27.90
2022-08-03T08:43:37.394Z,28.13
2022-08-03T08:46:39.679Z,28.36
2022-08-03T08:49:53.404Z,28.63
2022-08-03T08:53:03.701Z,28.42
2022-08-03T08:56:06.750Z,28.75
2022-08-03T08:59:08.634Z,28.73
2022-08-03T09:02:10.845Z,29.17
2022-08-03T09:05:13.679Z,29.26
2022-08-03T09:08:15.369Z,29.20
2022-08-03T09:11:21.179Z,29.17
2022-08-03T09:15:00.773Z,29.09
2022-08-03T09:18:05.214Z,29.15
2022-08-03T09:21:34.283Z,29.33
2022-08-03T09:24:41.455Z,29.70
2022-08-03T09:27:46.867Z,30.00
2022-08-03T09:31:00.747Z,29.88
2022-08-03T09:34:06.920Z,30.29
2022-08-03T09:37:16.621Z,30.25
2022-08-03T09:40:35.225Z,30.21
2022-08-03T09:43:46.741Z,30.37
2022-08-03T09:46:58.754Z,30.18
2022-08-03T09:50:02.782Z,30.47
2022-08-03T09:53:04.706Z,30.63
2022-08-03T09:56:33.542Z,30.78
2022-08-03T09:59:29.759Z,30.96
2022-08-03T10:02:31.316Z,31.19
2022-08-03T10:05:33.167Z,31.25
2022-08-03T10:08:34.938Z,31.26
2022-08-03T10:11:41.714Z,31.11
2022-08-03T10:14:45.616Z,31.46
2022-08-03T10:17:47.283Z,31.63
2022-08-03T10:21:04.547Z,31.43
2022-08-03T10:24:08.453Z,31.74
2022-08-03T10:27:11.437Z,31.93
2022-08-03T10:30:13.828Z,32.11
2022-08-03T10:33:51.643Z,31.85
2022-08-03T10:36:41.051Z,32.13
2022-08-03T10:39:53.471Z,32.31
2022-08-03T10:42:59.434Z,32.24
2022-08-03T10:46:03.289Z,32.26
2022-08-03T10:49:06.385Z,32.66
2022-08-03T10:52:13.676Z,32.22
2022-08-03T10:55:56.170Z,32.68
2022-08-03T10:59:00.130Z,32.48
2022-08-03T11:02:08.270Z,32.49
2022-08-03T11:05:28.280Z,32.67
2022-08-03T11:08:32.080Z,32.81
2022-08-03T11:11:33.487Z,33.39
2022-08-03T11:14:47.704Z,33.09
2022-08-03T11:18:11.194Z,32.83
2022-08-03T11:21:13.057Z,33.19
2022-08-03T11:24:36.423Z,33.12
2022-08-03T11:27:38.786Z,33.49
2022-08-03T11:30:41.012Z,33.70
2022-08-03T11:33:42.503Z,34.03
2022-08-03T11:37:23.977Z,33.78
2022-08-03T11:40:33.722Z,33.53
2022-08-03T11:43:36.732Z,34.02
2022-08-03T11:46:38.661Z,33.68
2022-08-03T11:49:40.733Z,34.15
2022-08-03T11:52:42.257Z,34.60
2022-08-03T11:55:48.799Z,34.65
2022-08-03T11:59:17.366Z,34.42
2022-08-03T12:02:16.865Z,34.89
2022-08-03T12:05:18.985Z,34.80
2022-08-03T12:08:26.695Z,35.17
2022-08-03T12:11:30.564Z,35.00
2022-08-03T12:14:49.816Z,34.81
2022-08-03T12:17:57.695Z,34.99
2022-08-03T12:21:08.803Z,35.11
2022-08-03T12:24:10.290Z,35.27
2022-08-03T12:27:12.519Z,35.67
2022-08-03T12:30:14.163Z,35.64
2022-08-03T12:33:16.640Z,35.09
2022-08-03T12:36:19.366Z,35.73
2022-08-03T12:39:26.331Z,36.00
2022-08-03T12:42:35.472Z,36.11
2022-08-03T12:45:37.199Z,36.12
2022-08-03T12:49:07.310Z,35.94
2022-08-03T12:52:08.801Z,36.36
2022-08-03T12:55:19.884Z,36.25
2022-08-03T12:58:36.159Z,35.74
2022-08-03T13:01:54.818Z,36.17
2022-08-03T13:04:57.417Z,36.74
2022-08-03T13:07:58.993Z,36.77
2022-08-03T13:11:19.129Z,36.22
2022-08-03T13:14:20.810Z,35.87
2022-08-03T13:17:22.818Z,35.97
2022-08-03T13:20:26.976Z,36.13
2022-08-03T13:23:29.920Z,36.68
2022-08-03T13:26:31.524Z,36.50
2022-08-03T13:29:34.462Z,36.86
2022-08-03T13:32:36.414Z,36.74
2022-08-03T13:35:38.097Z,36.80
2022-08-03T13:38:39.795Z,36.98
2022-08-03T13:41:41.459Z,36.89
2022-08-03T13:44:43.068Z,36.77
2022-08-03T13:47:44.680Z,37.31
2022-08-03T13:50:46.544Z,37.20
2022-08-03T13:53:48.250Z,37.21
2022-08-03T13:56:52.894Z,37.30
2022-08-03T13:59:54.824Z,37.60
2022-08-03T14:03:13.657Z,37.52
2022-08-03T14:06:15.571Z,37.11
2022-08-03T14:09:17.597Z,37.49
2022-08-03T14:12:19.061Z,37.45
2022-08-03T14:15:20.647Z,37.32
2022-08-03T14:18:28.365Z,37.40
2022-08-03T14:21:31.355Z,37.25
2022-08-03T14:24:32.829Z,36.32
2022-08-03T14:27:34.298Z,36.37
2022-08-03T14:30:35.995Z,37.13
2022-08-03T14:33:37.629Z,36.80
2022-08-03T14:36:39.278Z,37.19
2022-08-03T14:43:02.554Z,37.22
2022-08-03T14:46:04.084Z,37.43
2022-08-03T14:50:39.031Z,37.63
2022-08-03T14:52:27.064Z,37.30
2022-08-03T14:55:28.810Z,37.80
2022-08-03T14:58:40.620Z,37.91
2022-08-03T15:02:03.220Z,37.85
2022-08-03T15:05:03.930Z,37.68
2022-08-03T15:08:09.330Z,37.99
2022-08-03T15:11:10.992Z,37.87
2022-08-03T15:14:13.510Z,37.78
2022-08-03T15:17:16.379Z,37.74
2022-08-03T15:20:28.942Z,38.07
2022-08-03T15:23:38.030Z,37.81
2022-08-03T15:26:41.797Z,37.54
2022-08-03T15:30:07.087Z,37.47
2022-08-03T15:33:05.741Z,37.93
2022-08-03T15:36:07.420Z,38.00
2022-08-03T15:39:08.957Z,38.04
2022-08-03T15:42:10.487Z,37.92
2022-08-03T15:45:11.969Z,37.93
2022-08-03T15:48:14.350Z,37.99
2022-08-03T15:51:17.314Z,38.33
2022-08-03T15:54:18.844Z,38.30
2022-08-03T15:57:20.846Z,37.87
2022-08-03T16:00:33.341Z,37.54
2022-08-03T16:03:35.475Z,37.33
2022-08-03T16:06:37.006Z,38.06
2022-08-03T16:09:42.464Z,38.18
2022-08-03T16:12:45.950Z,37.81
2022-08-03T16:15:47.810Z,37.61
2022-08-03T16:18:49.232Z,37.40
2022-08-03T16:21:50.804Z,37.78
2022-08-03T16:24:53.818Z,37.70
2022-08-03T16:27:58.397Z,37.73
2022-08-03T16:31:09.156Z,37.73
2022-08-03T16:34:10.644Z,38.20
2022-08-03T16:37:37.055Z,37.90
2022-08-03T16:40:35.015Z,37.89
2022-08-03T16:43:36.542Z,37.71
2022-08-03T16:46:38.058Z,38.30
2022-08-03T16:49:54.686Z,37.98
2022-08-03T16:52:57.982Z,39.15
2022-08-03T16:56:00.033Z,40.05
2022-08-03T16:59:02.761Z,39.54
2022-08-03T17:02:09.918Z,39.35
2022-08-03T17:05:12.309Z,39.68
2022-08-03T17:08:14.147Z,39.92
2022-08-03T17:11:15.595Z,39.32
2022-08-03T17:14:21.618Z,38.23
2022-08-03T17:17:29.870Z,37.62
2022-08-03T17:20:40.382Z,37.45
2022-08-03T17:24:19.851Z,37.08
2022-08-03T17:28:50.362Z,36.55
2022-08-03T17:31:23.209Z,36.46
2022-08-03T17:34:29.148Z,36.53
2022-08-03T17:37:58.241Z,36.50
2022-08-03T17:40:53.761Z,35.91
2022-08-03T17:44:15.199Z,35.95
2022-08-03T17:47:19.412Z,35.72
2022-08-03T17:50:23.994Z,35.48
2022-08-03T17:54:05.649Z,35.33
2022-08-03T17:58:02.154Z,34.93
2022-08-03T18:02:03.251Z,34.55
2022-08-03T18:04:55.282Z,34.47
2022-08-03T18:08:01.756Z,34.35
2022-08-03T18:11:09.685Z,34.42
2022-08-03T18:14:26.035Z,34.44
2022-08-03T18:17:55.496Z,34.38
2022-08-03T18:20:54.708Z,34.19
2022-08-03T18:23:57.031Z,34.12
2022-08-03T18:27:03.167Z,33.81
2022-08-03T18:30:05.297Z,33.74
2022-08-03T18:34:17.628Z,33.40
2022-08-03T18:36:33.340Z,33.12
2022-08-03T18:39:49.613Z,33.10
2022-08-03T18:42:54.782Z,32.87
2022-08-03T18:46:01.283Z,32.57
2022-08-03T18:49:18.694Z,32.55
2022-08-03T18:52:35.595Z,32.12
2022-08-03T18:55:52.225Z,32.11
2022-08-03T18:59:18.078Z,31.71
2022-08-03T19:02:39.202Z,31.59
2022-08-03T19:06:09.461Z,30.89
2022-08-03T19:09:30.062Z,31.10
2022-08-03T19:12:39.893Z,30.73
2022-08-03T19:15:51.330Z,30.70
2022-08-03T19:18:54.630Z,30.35
2022-08-03T19:21:56.688Z,30.44
2022-08-03T19:25:00.809Z,30.16
2022-08-03T19:28:06.086Z,30.16
2022-08-03T19:31:10.925Z,29.65
2022-08-03T19:34:14.359Z,29.54
2022-08-03T19:37:18.102Z,29.45
2022-08-03T19:40:24.322Z,29.39
2022-08-03T19:43:53.857Z,29.43
2022-08-03T19:47:11.497Z,29.35
2022-08-03T19:50:20.512Z,29.45
2022-08-03T19:53:23.837Z,29.34
2022-08-03T19:56:44.903Z,29.37
2022-08-03T19:59:50.744Z,29.51
2022-08-03T20:02:52.726Z,29.63
2022-08-03T20:05:54.297Z,29.71
2022-08-03T20:08:57.696Z,29.62
2022-08-03T20:12:00.421Z,29.46
2022-08-03T20:15:03.128Z,29.65
2022-08-03T20:18:04.639Z,29.42
2022-08-03T20:21:15.289Z,29.41
2022-08-03T20:24:24.645Z,29.44
2022-08-03T20:27:30.174Z,29.58
2022-08-03T20:30:32.068Z,29.83
2022-08-03T20:33:37.758Z,29.84
2022-08-03T20:36:47.948Z,29.78
2022-08-03T20:39:49.662Z,29.68
2022-08-03T20:42:52.052Z,29.74
2022-08-03T20:46:01.206Z,29.93
2022-08-03T20:49:20.390Z,30.23
2022-08-03T20:52:26.187Z,30.54
2022-08-03T20:55:47.811Z,30.68
2022-08-03T20:58:51.018Z,30.82
2022-08-03T21:01:52.639Z,30.82
2022-08-03T21:04:56.377Z,31.14
2022-08-03T21:08:06.915Z,31.07
2022-08-03T21:11:15.637Z,31.02
2022-08-03T21:14:27.811Z,30.74
2022-08-03T21:17:40.383Z,30.78
2022-08-03T21:20:44.809Z,31.27
2022-08-03T21:23:50.205Z,31.03
2022-08-03T21:26:54.637Z,31.12
2022-08-03T21:29:58.334Z,31.20
2022-08-03T21:32:59.777Z,31.41
2022-08-03T21:36:01.924Z,31.53
2022-08-03T21:39:08.213Z,31.57
2022-08-03T21:42:10.202Z,31.60
2022-08-03T21:45:17.056Z,31.74
2022-08-03T21:48:19.538Z,31.85
2022-08-03T21:51:24.686Z,31.51
2022-08-03T21:54:35.376Z,31.65
2022-08-03T21:57:39.222Z,31.46
2022-08-03T22:00:42.572Z,31.53
2022-08-03T22:03:53.096Z,31.70
2022-08-03T22:06:55.676Z,31.72
2022-08-03T22:09:59.355Z,31.68
2022-08-03T22:13:00.840Z,31.62
2022-08-03T22:16:04.475Z,31.61
2022-08-03T22:19:05.957Z,31.38
2022-08-03T22:22:13.662Z,31.45
2022-08-03T22:25:16.055Z,31.53
2022-08-03T22:28:18.614Z,31.71
2022-08-03T22:31:57.658Z,31.83
2022-08-03T22:34:42.970Z,31.63
2022-08-03T22:37:45.509Z,31.59
2022-08-03T22:40:50.728Z,31.60
2022-08-03T22:43:52.739Z,31.52
2022-08-03T22:46:55.454Z,31.62
2022-08-03T22:50:31.772Z,31.63
2022-08-03T22:53:22.277Z,31.52
2022-08-03T22:56:23.939Z,31.49
2022-08-03T22:59:41.329Z,31.58
2022-08-03T23:02:46.784Z,31.70
2022-08-03T23:06:00.348Z,31.56
2022-08-03T23:09:10.120Z,31.38
2022-08-03T23:12:17.052Z,31.56
2022-08-03T23:15:18.680Z,31.49
2022-08-03T23:18:23.335Z,31.63
2022-08-03T23:21:53.344Z,31.66
2022-08-03T23:24:51.027Z,31.68
2022-08-03T23:28:05.095Z,31.72
2022-08-03T23:31:08.345Z,31.83
2022-08-03T23:34:32.210Z,31.00
2022-08-03T23:38:04.424Z,29.73
2022-08-03T23:40:59.233Z,29.08
2022-08-03T23:44:03.830Z,29.05
2022-08-03T23:47:05.333Z,28.82
2022-08-03T23:50:07.214Z,28.56
2022-08-03T23:53:19.527Z,28.62
2022-08-03T23:56:27.955Z,28.32
2022-08-03T23:59:40.306Z,27.93
